Time;durP1;ratioP1;P1;durP2;ratioP2;P2;SDS_P1;SDS_P2;PMS_P1;PMS_P2;Temp;Humidity;BMP_temperature;BMP_pressure;BME280_temperature;BME280_humidity;BME280_pressure;Samples;Min_cycle;Max_cycle;Signal;HPM_P1;HPM_P2
2022/07/07 00:00:58;;;;;;;5.53;2.63;;;;;;;;;;5087949;28;20212;-50
2022/07/07 00:03:27;;;;;;;3.77;2.50;;;;;;;;;;5088461;28;20282;-49
2022/07/07 00:05:54;;;;;;;4.97;3.10;;;;;;;;;;5088132;28;20169;-50
2022/07/07 00:08:20;;;;;;;4.50;3.00;;;;;;;;;;5069009;28;20164;-50
2022/07/07 00:10:50;;;;;;;3.17;2.70;;;;;;;;;;5045680;28;20187;-49
2022/07/07 00:13:17;;;;;;;4.13;2.80;;;;;;;;;;5068056;28;20810;-50
2022/07/07 00:15:45;;;;;;;2.80;2.43;;;;;;;;;;5050204;28;20184;-50
2022/07/07 00:18:15;;;;;;;3.13;2.20;;;;;;;;;;5049680;28;20172;-50
2022/07/07 00:20:41;;;;;;;5.27;2.83;;;;;;;;;;5075411;28;20528;-50
2022/07/07 00:23:08;;;;;;;6.17;2.57;;;;;;;;;;5086513;28;20187;-49
2022/07/07 00:25:34;;;;;;;4.90;3.03;;;;;;;;;;5087689;28;20171;-50
2022/07/07 00:28:01;;;;;;;3.47;2.50;;;;;;;;;;5069339;28;20166;-49
2022/07/07 00:30:27;;;;;;;3.93;2.50;;;;;;;;;;5049470;28;20654;-49
2022/07/07 00:32:53;;;;;;;2.97;2.70;;;;;;;;;;5049873;28;20251;-49
2022/07/07 00:35:20;;;;;;;4.10;2.90;;;;;;;;;;5063076;28;20182;-50
2022/07/07 00:37:46;;;;;;;3.97;2.70;;;;;;;;;;5039398;28;20170;-49
2022/07/07 00:40:12;;;;;;;3.70;2.47;;;;;;;;;;5064205;28;20175;-50
2022/07/07 00:42:39;;;;;;;3.37;2.23;;;;;;;;;;5047442;28;20205;-49
2022/07/07 00:45:06;;;;;;;2.87;2.60;;;;;;;;;;5047649;28;20674;-49
2022/07/07 00:47:33;;;;;;;4.27;2.50;;;;;;;;;;5029481;28;20205;-49
2022/07/07 00:49:59;;;;;;;2.70;2.50;;;;;;;;;;5029637;28;20232;-50
2022/07/07 00:52:26;;;;;;;5.23;2.30;;;;;;;;;;5028075;28;20190;-49
2022/07/07 00:54:54;;;;;;;4.33;2.30;;;;;;;;;;5029148;28;20680;-49
2022/07/07 00:57:21;;;;;;;2.50;2.30;;;;;;;;;;5047209;28;20161;-49
2022/07/07 00:59:47;;;;;;;4.83;2.53;;;;;;;;;;5029229;28;20640;-50
2022/07/07 01:02:14;;;;;;;5.87;3.60;;;;;;;;;;5028178;28;20210;-50
2022/07/07 01:04:40;;;;;;;4.13;2.90;;;;;;;;;;5029310;28;20232;-50
2022/07/07 01:07:06;;;;;;;4.37;2.87;;;;;;;;;;5046217;28;20530;-49
2022/07/07 01:09:33;;;;;;;5.00;2.83;;;;;;;;;;5028952;28;20711;-49
2022/07/07 01:12:00;;;;;;;4.27;3.07;;;;;;;;;;5028459;28;20194;-50
2022/07/07 01:14:28;;;;;;;3.30;3.00;;;;;;;;;;5029225;28;20690;-49
2022/07/07 01:16:54;;;;;;;4.53;3.03;;;;;;;;;;5028344;28;20521;-50
2022/07/07 01:19:21;;;;;;;3.37;2.60;;;;;;;;;;5046692;28;20662;-49
2022/07/07 01:21:54;;;;;;;3.30;2.70;;;;;;;;;;5027925;28;20667;-49
2022/07/07 01:24:23;;;;;;;3.90;2.80;;;;;;;;;;5046074;28;20205;-50
2022/07/07 01:26:49;;;;;;;4.93;3.93;;;;;;;;;;5028048;28;20216;-48
2022/07/07 01:29:16;;;;;;;3.77;3.20;;;;;;;;;;5029514;28;20224;-48
2022/07/07 01:31:42;;;;;;;3.03;2.83;;;;;;;;;;5028152;28;20227;-50
2022/07/07 01:34:08;;;;;;;5.50;3.10;;;;;;;;;;5046081;28;20540;-50
2022/07/07 01:36:35;;;;;;;4.87;3.80;;;;;;;;;;5032918;28;20181;-54
2022/07/07 01:39:01;;;;;;;4.03;3.03;;;;;;;;;;5027443;28;20264;-48
2022/07/07 01:41:27;;;;;;;3.90;3.37;;;;;;;;;;5045724;28;20174;-49
2022/07/07 01:43:53;;;;;;;7.10;3.53;;;;;;;;;;5046659;28;20620;-49
2022/07/07 01:46:20;;;;;;;3.80;3.50;;;;;;;;;;5039978;28;20720;-48
2022/07/07 01:48:46;;;;;;;3.67;3.13;;;;;;;;;;5066175;28;20157;-49
2022/07/07 01:51:13;;;;;;;4.17;2.97;;;;;;;;;;5029235;28;20214;-50
2022/07/07 01:53:39;;;;;;;3.77;2.90;;;;;;;;;;5007420;28;20501;-48
2022/07/07 01:56:06;;;;;;;4.80;3.33;;;;;;;;;;5036674;28;20189;-49
2022/07/07 01:58:33;;;;;;;3.53;2.60;;;;;;;;;;5046411;28;20409;-51
2022/07/07 02:00:59;;;;;;;3.33;3.07;;;;;;;;;;5038500;28;20189;-49
2022/07/07 02:03:26;;;;;;;3.97;3.67;;;;;;;;;;5011831;28;20208;-49
2022/07/07 02:05:53;;;;;;;3.20;2.90;;;;;;;;;;5028165;28;20229;-50
2022/07/07 02:08:19;;;;;;;4.07;3.00;;;;;;;;;;5044909;28;20192;-48
2022/07/07 02:13:30;;;;;;;3.10;2.90;;;;;;;;;;5046595;28;20247;-47
2022/07/07 02:15:56;;;;;;;4.60;2.70;;;;;;;;;;5022456;28;20271;-48
2022/07/07 02:18:23;;;;;;;3.20;2.90;;;;;;;;;;5045820;28;20295;-49
2022/07/07 02:20:49;;;;;;;4.07;3.07;;;;;;;;;;5028118;28;20193;-47
2022/07/07 02:23:15;;;;;;;2.90;2.60;;;;;;;;;;5030301;28;20590;-49
2022/07/07 02:25:42;;;;;;;3.00;2.70;;;;;;;;;;5035417;28;20181;-50
2022/07/07 02:28:09;;;;;;;6.37;3.10;;;;;;;;;;5048324;28;20289;-49
2022/07/07 02:30:35;;;;;;;3.93;3.13;;;;;;;;;;5046539;28;20709;-49
2022/07/07 02:33:02;;;;;;;3.33;3.03;;;;;;;;;;5031825;28;20662;-50
2022/07/07 02:35:28;;;;;;;5.40;2.33;;;;;;;;;;5031455;28;20181;-50
2022/07/07 02:37:54;;;;;;;2.73;2.53;;;;;;;;;;5030812;28;20174;-49
2022/07/07 02:40:21;;;;;;;4.13;3.53;;;;;;;;;;5031082;28;20586;-49
2022/07/07 02:42:47;;;;;;;5.20;3.13;;;;;;;;;;5031251;28;20202;-47
2022/07/07 02:45:14;;;;;;;2.90;2.60;;;;;;;;;;5049448;28;20186;-50
2022/07/07 02:47:40;;;;;;;3.90;2.93;;;;;;;;;;5031178;28;20308;-49
2022/07/07 02:50:06;;;;;;;5.00;3.13;;;;;;;;;;5049252;28;20167;-50
2022/07/07 02:52:32;;;;;;;3.83;3.43;;;;;;;;;;5030177;28;20179;-50
2022/07/07 02:54:59;;;;;;;3.93;3.03;;;;;;;;;;5031269;28;20183;-50
2022/07/07 02:57:25;;;;;;;7.23;3.87;;;;;;;;;;5030941;28;20625;-50
2022/07/07 02:59:51;;;;;;;4.05;3.55;;;;;;;;;;5031482;28;20419;-49
2022/07/07 03:02:17;;;;;;;3.97;3.27;;;;;;;;;;5031320;28;20199;-50
2022/07/07 03:04:44;;;;;;;4.90;2.97;;;;;;;;;;5030258;28;20181;-50
2022/07/07 03:07:10;;;;;;;3.73;3.23;;;;;;;;;;5030498;28;20185;-50
2022/07/07 03:09:36;;;;;;;2.97;2.67;;;;;;;;;;5031273;28;20207;-50
2022/07/07 03:12:04;;;;;;;3.50;3.20;;;;;;;;;;5049311;28;20179;-50
2022/07/07 03:14:30;;;;;;;8.33;3.73;;;;;;;;;;5031362;28;20190;-49
2022/07/07 03:16:57;;;;;;;3.57;3.27;;;;;;;;;;5041433;28;20313;-49
2022/07/07 03:19:23;;;;;;;4.77;3.60;;;;;;;;;;5029512;28;20250;-49
2022/07/07 03:21:50;;;;;;;3.20;2.87;;;;;;;;;;5044683;28;20670;-50
2022/07/07 03:24:16;;;;;;;4.50;3.07;;;;;;;;;;5048858;28;20484;-49
2022/07/07 03:26:42;;;;;;;3.30;3.03;;;;;;;;;;5031188;28;20234;-49
2022/07/07 03:29:09;;;;;;;4.43;3.47;;;;;;;;;;5032173;28;20332;-49
2022/07/07 03:31:35;;;;;;;8.23;7.73;;;;;;;;;;5031198;28;20190;-49
2022/07/07 03:34:02;;;;;;;4.37;3.27;;;;;;;;;;5049253;28;20212;-51
2022/07/07 03:36:28;;;;;;;4.80;3.07;;;;;;;;;;5055181;28;20534;-50
2022/07/07 03:38:55;;;;;;;5.17;3.13;;;;;;;;;;5032316;28;20245;-50
2022/07/07 03:41:21;;;;;;;4.53;3.10;;;;;;;;;;5041111;28;20296;-49
2022/07/07 03:43:47;;;;;;;3.43;3.13;;;;;;;;;;5049095;28;20200;-50
2022/07/07 03:46:14;;;;;;;3.93;3.23;;;;;;;;;;5049092;28;20239;-50
2022/07/07 03:48:40;;;;;;;5.20;3.50;;;;;;;;;;5030806;28;20181;-49
2022/07/07 03:51:07;;;;;;;2.80;2.60;;;;;;;;;;5030285;28;20201;-50
2022/07/07 03:53:33;;;;;;;4.07;3.27;;;;;;;;;;5029317;28;20196;-49
2022/07/07 03:55:59;;;;;;;4.50;3.17;;;;;;;;;;5023043;28;20176;-66
2022/07/07 03:58:26;;;;;;;4.03;3.50;;;;;;;;;;5028405;28;20182;-51
2022/07/07 04:00:52;;;;;;;6.03;4.03;;;;;;;;;;5044784;28;20357;-50
2022/07/07 04:03:18;;;;;;;7.73;5.40;;;;;;;;;;5068223;28;20586;-49
2022/07/07 04:05:44;;;;;;;4.27;3.30;;;;;;;;;;5061000;28;20231;-49
2022/07/07 04:08:14;;;;;;;6.53;3.43;;;;;;;;;;5045338;28;20654;-49
2022/07/07 04:10:46;;;;;;;6.10;3.40;;;;;;;;;;5043776;28;20184;-48
2022/07/07 04:13:14;;;;;;;4.70;3.30;;;;;;;;;;5047899;28;20169;-49
2022/07/07 04:15:40;;;;;;;3.83;3.53;;;;;;;;;;5033101;28;20210;-48
2022/07/07 04:18:06;;;;;;;3.97;3.60;;;;;;;;;;5047798;28;20165;-48
2022/07/07 04:20:33;;;;;;;5.60;3.50;;;;;;;;;;5063637;28;20181;-49
2022/07/07 04:22:59;;;;;;;6.03;3.50;;;;;;;;;;5048786;28;20212;-49
2022/07/07 04:25:26;;;;;;;5.57;5.10;;;;;;;;;;5049757;28;20320;-50
2022/07/07 04:27:52;;;;;;;3.30;2.83;;;;;;;;;;5049812;28;20207;-49
2022/07/07 04:30:19;;;;;;;3.83;3.33;;;;;;;;;;5060103;28;20652;-50
2022/07/07 04:32:45;;;;;;;5.43;4.53;;;;;;;;;;5049848;28;20276;-48
2022/07/07 04:35:11;;;;;;;6.20;3.57;;;;;;;;;;5049591;28;20289;-50
2022/07/07 04:37:38;;;;;;;3.80;2.93;;;;;;;;;;5066449;28;20952;-48
2022/07/07 04:40:04;;;;;;;3.73;3.37;;;;;;;;;;5050582;28;20185;-47
2022/07/07 04:42:30;;;;;;;3.60;3.10;;;;;;;;;;5088626;28;20218;-58
2022/07/07 04:44:57;;;;;;;3.97;2.97;;;;;;;;;;5087288;28;20546;-49
2022/07/07 04:47:23;;;;;;;3.63;3.30;;;;;;;;;;5069826;28;20710;-50
2022/07/07 04:49:52;;;;;;;4.47;3.07;;;;;;;;;;5087806;28;20160;-47
2022/07/07 04:52:18;;;;;;;5.03;4.70;;;;;;;;;;5085786;28;20294;-49
2022/07/07 04:54:45;;;;;;;3.70;3.40;;;;;;;;;;5069806;28;20194;-51
2022/07/07 04:57:11;;;;;;;4.27;3.57;;;;;;;;;;5087099;28;20172;-48
2022/07/07 04:59:40;;;;;;;3.67;3.33;;;;;;;;;;5069684;28;20649;-49
2022/07/07 05:02:06;;;;;;;5.20;4.73;;;;;;;;;;5087401;28;20207;-47
2022/07/07 05:04:32;;;;;;;3.00;2.80;;;;;;;;;;5088220;28;20197;-48
2022/07/07 05:06:59;;;;;;;4.23;3.27;;;;;;;;;;5086387;28;20622;-49
2022/07/07 05:09:25;;;;;;;3.27;2.97;;;;;;;;;;5069055;28;20734;-48
2022/07/07 05:11:51;;;;;;;3.53;2.70;;;;;;;;;;5086615;28;20489;-48
2022/07/07 05:14:17;;;;;;;3.93;2.67;;;;;;;;;;5087831;28;20263;-48
2022/07/07 05:16:43;;;;;;;3.33;3.03;;;;;;;;;;5087066;28;20168;-49
2022/07/07 05:19:16;;;;;;;3.30;3.00;;;;;;;;;;5087094;28;20171;-47
2022/07/07 05:21:42;;;;;;;3.00;2.70;;;;;;;;;;5053719;28;20254;-49
2022/07/07 05:24:08;;;;;;;3.00;2.70;;;;;;;;;;5066578;28;20157;-48
2022/07/07 05:26:44;;;;;;;4.10;3.00;;;;;;;;;;5048552;28;20315;-49
2022/07/07 05:29:24;;;;;;;3.97;2.43;;;;;;;;;;5051372;28;20259;-53
2022/07/07 05:31:50;;;;;;;2.83;2.40;;;;;;;;;;5048679;28;20268;-49
2022/07/07 05:34:16;;;;;;;4.30;2.40;;;;;;;;;;5048041;28;20181;-50
2022/07/07 05:36:42;;;;;;;3.17;2.50;;;;;;;;;;5059263;28;20632;-50
2022/07/07 05:39:09;;;;;;;2.90;2.60;;;;;;;;;;5064359;28;20169;-50
2022/07/07 05:41:35;;;;;;;3.43;2.43;;;;;;;;;;5053158;28;20188;-49
2022/07/07 05:44:01;;;;;;;2.67;2.40;;;;;;;;;;5066265;28;20188;-49
2022/07/07 05:46:27;;;;;;;2.53;2.27;;;;;;;;;;5056958;28;20272;-49
2022/07/07 05:48:54;;;;;;;4.53;2.03;;;;;;;;;;5065188;28;20211;-51
2022/07/07 05:51:20;;;;;;;2.30;2.10;;;;;;;;;;5056272;28;20566;-50
2022/07/07 05:53:47;;;;;;;2.40;2.20;;;;;;;;;;5065643;28;20190;-51
2022/07/07 05:56:13;;;;;;;3.00;2.13;;;;;;;;;;5055073;28;20193;-50
2022/07/07 05:58:40;;;;;;;2.33;2.13;;;;;;;;;;5067968;28;20268;-51
2022/07/07 06:01:06;;;;;;;2.77;2.53;;;;;;;;;;5076138;28;20276;-52
2022/07/07 06:03:32;;;;;;;2.27;2.07;;;;;;;;;;5066237;28;20243;-51
2022/07/07 06:05:58;;;;;;;2.80;2.07;;;;;;;;;;5048220;28;20275;-51
2022/07/07 06:08:27;;;;;;;2.70;2.50;;;;;;;;;;5064664;28;20620;-51
2022/07/07 06:10:53;;;;;;;2.30;2.07;;;;;;;;;;5052594;28;20552;-51
2022/07/07 06:13:19;;;;;;;2.50;2.30;;;;;;;;;;5064967;28;20180;-51
2022/07/07 06:15:46;;;;;;;2.37;2.17;;;;;;;;;;5061611;28;20603;-50
2022/07/07 06:18:12;;;;;;;3.77;2.40;;;;;;;;;;5047673;28;20237;-53
2022/07/07 06:20:38;;;;;;;3.03;2.50;;;;;;;;;;5053926;28;20390;-62
2022/07/07 06:23:05;;;;;;;2.90;1.97;;;;;;;;;;5085359;28;20194;-52
2022/07/07 06:25:31;;;;;;;2.30;2.10;;;;;;;;;;5063131;28;20187;-52
2022/07/07 06:27:58;;;;;;;2.30;2.10;;;;;;;;;;5047651;28;20168;-51
2022/07/07 06:30:25;;;;;;;2.30;2.03;;;;;;;;;;5067327;27;20217;-50
2022/07/07 06:32:51;;;;;;;3.63;1.93;;;;;;;;;;5048415;28;20764;-50
2022/07/07 06:35:20;;;;;;;2.40;1.87;;;;;;;;;;5048165;28;20264;-50
2022/07/07 06:37:47;;;;;;;2.07;1.97;;;;;;;;;;5046925;28;20239;-51
2022/07/07 06:40:13;;;;;;;3.50;2.30;;;;;;;;;;5048080;28;20208;-50
2022/07/07 06:42:40;;;;;;;2.47;1.73;;;;;;;;;;5047987;28;20208;-50
2022/07/07 06:45:06;;;;;;;2.13;2.00;;;;;;;;;;5031546;28;20176;-52
2022/07/07 06:47:33;;;;;;;2.20;1.90;;;;;;;;;;5066070;28;20572;-51
2022/07/07 06:49:59;;;;;;;3.20;2.07;;;;;;;;;;5047644;28;20176;-49
2022/07/07 06:52:26;;;;;;;3.13;2.67;;;;;;;;;;5064411;28;20239;-47
2022/07/07 06:54:52;;;;;;;2.30;2.10;;;;;;;;;;5048279;28;20188;-48
2022/07/07 06:57:19;;;;;;;2.87;1.77;;;;;;;;;;5065712;28;20173;-48
2022/07/07 06:59:45;;;;;;;3.70;2.20;;;;;;;;;;5047993;28;20188;-48
2022/07/07 07:02:11;;;;;;;2.60;1.90;;;;;;;;;;5047541;28;20207;-51
2022/07/07 07:04:38;;;;;;;1.83;1.73;;;;;;;;;;5065923;28;20571;-49
2022/07/07 07:07:04;;;;;;;2.70;1.90;;;;;;;;;;5064911;28;20179;-47
2022/07/07 07:09:31;;;;;;;2.10;2.00;;;;;;;;;;5051317;28;20173;-49
2022/07/07 07:11:57;;;;;;;3.10;2.80;;;;;;;;;;5069327;28;20175;-49
2022/07/07 07:14:23;;;;;;;3.10;1.50;;;;;;;;;;5069949;28;20177;-48
2022/07/07 07:16:50;;;;;;;2.37;1.70;;;;;;;;;;5051155;28;20220;-48
2022/07/07 07:19:16;;;;;;;3.30;1.77;;;;;;;;;;5069063;28;20156;-49
2022/07/07 07:21:46;;;;;;;3.53;1.70;;;;;;;;;;5050584;28;20195;-47
2022/07/07 07:24:12;;;;;;;3.23;1.70;;;;;;;;;;5068880;28;20163;-47
2022/07/07 07:26:39;;;;;;;3.40;2.20;;;;;;;;;;5051319;28;20639;-48
2022/07/07 07:29:08;;;;;;;2.17;1.80;;;;;;;;;;5052237;27;20530;-47
2022/07/07 07:31:34;;;;;;;2.77;1.90;;;;;;;;;;5069184;28;20674;-47
2022/07/07 07:34:01;;;;;;;2.33;2.10;;;;;;;;;;5050341;28;20202;-48
2022/07/07 07:36:27;;;;;;;2.80;2.03;;;;;;;;;;5050366;28;20504;-47
2022/07/07 07:38:54;;;;;;;2.23;1.80;;;;;;;;;;5050051;28;20204;-47
2022/07/07 07:41:21;;;;;;;3.27;1.93;;;;;;;;;;5068192;28;20207;-48
2022/07/07 07:43:47;;;;;;;3.50;1.97;;;;;;;;;;5068904;28;20592;-47
2022/07/07 07:46:13;;;;;;;2.57;1.83;;;;;;;;;;5068818;28;20252;-48
2022/07/07 07:48:40;;;;;;;2.73;1.90;;;;;;;;;;5050408;28;20180;-55
2022/07/07 07:51:06;;;;;;;5.60;2.10;;;;;;;;;;5068034;28;20212;-50
2022/07/07 07:53:33;;;;;;;6.20;2.43;;;;;;;;;;5049438;28;20180;-47
2022/07/07 07:55:59;;;;;;;3.87;1.73;;;;;;;;;;5050329;28;20309;-48
2022/07/07 07:58:26;;;;;;;3.53;1.73;;;;;;;;;;5049460;28;20193;-47
2022/07/07 08:00:52;;;;;;;4.47;2.20;;;;;;;;;;5068294;28;20180;-47
2022/07/07 08:03:18;;;;;;;4.00;1.90;;;;;;;;;;5049935;28;20753;-48
2022/07/07 08:05:45;;;;;;;3.67;2.00;;;;;;;;;;5068340;28;20768;-49
2022/07/07 08:08:11;;;;;;;3.27;1.93;;;;;;;;;;5048985;28;20199;-49
2022/07/07 08:10:38;;;;;;;2.23;1.77;;;;;;;;;;5068174;28;20248;-47
2022/07/07 08:13:04;;;;;;;6.13;2.73;;;;;;;;;;5067442;28;20168;-47
2022/07/07 08:15:31;;;;;;;7.13;3.13;;;;;;;;;;5068212;28;20689;-48
2022/07/07 08:17:57;;;;;;;4.30;1.97;;;;;;;;;;5049781;28;20184;-48
2022/07/07 08:20:23;;;;;;;4.23;1.97;;;;;;;;;;5067232;28;20631;-47
2022/07/07 08:22:50;;;;;;;2.17;1.93;;;;;;;;;;5048664;28;20196;-48
2022/07/07 08:25:16;;;;;;;3.77;2.00;;;;;;;;;;5049997;28;20192;-48
2022/07/07 08:27:43;;;;;;;4.47;2.33;;;;;;;;;;5049313;28;20659;-52
2022/07/07 08:30:10;;;;;;;4.00;2.40;;;;;;;;;;5050939;28;20216;-48
2022/07/07 08:32:37;;;;;;;3.80;1.80;;;;;;;;;;5067993;28;20173;-48
2022/07/07 08:35:03;;;;;;;6.00;2.37;;;;;;;;;;5049060;28;20184;-49
2022/07/07 08:37:30;;;;;;;5.27;2.03;;;;;;;;;;5048045;28;20551;-48
2022/07/07 08:40:02;;;;;;;2.10;1.73;;;;;;;;;;5067692;28;20323;-49
2022/07/07 08:42:29;;;;;;;3.20;1.67;;;;;;;;;;5047116;28;20214;-50
2022/07/07 08:44:56;;;;;;;4.53;1.90;;;;;;;;;;5013556;28;20182;-50
2022/07/07 08:47:22;;;;;;;3.53;1.60;;;;;;;;;;5029186;28;20208;-50
2022/07/07 08:49:48;;;;;;;4.77;1.83;;;;;;;;;;5047586;28;20236;-49
2022/07/07 08:52:15;;;;;;;2.23;1.80;;;;;;;;;;5047660;28;20822;-50
2022/07/07 08:54:42;;;;;;;4.27;2.07;;;;;;;;;;5048860;28;20191;-49
2022/07/07 08:57:08;;;;;;;3.37;1.93;;;;;;;;;;5048479;28;20184;-49
2022/07/07 08:59:34;;;;;;;3.97;1.70;;;;;;;;;;5049378;28;20184;-49
2022/07/07 09:02:02;;;;;;;1.97;1.67;;;;;;;;;;5048773;28;20196;-49
2022/07/07 09:04:28;;;;;;;4.23;2.00;;;;;;;;;;5067376;28;20541;-49
2022/07/07 09:06:59;;;;;;;2.67;2.00;;;;;;;;;;5066335;28;20169;-48
2022/07/07 09:09:29;;;;;;;2.73;1.80;;;;;;;;;;5048592;28;20181;-48
2022/07/07 09:12:06;;;;;;;2.20;1.57;;;;;;;;;;5048028;28;20624;-49
2022/07/07 09:14:52;;;;;;;2.97;1.87;;;;;;;;;;5048736;28;20211;-48
2022/07/07 09:17:32;;;;;;;2.77;1.77;;;;;;;;;;5048589;28;20246;-49
2022/07/07 09:20:03;;;;;;;2.27;2.07;;;;;;;;;;5049095;28;20187;-50
2022/07/07 09:22:45;;;;;;;3.00;2.10;;;;;;;;;;5011609;28;20664;-49
2022/07/07 09:25:12;;;;;;;2.90;1.60;;;;;;;;;;5030484;28;20268;-50
2022/07/07 09:27:52;;;;;;;3.60;1.70;;;;;;;;;;5048673;28;20210;-49
2022/07/07 09:30:39;;;;;;;4.10;1.90;;;;;;;;;;5049940;28;20536;-50
2022/07/07 09:33:09;;;;;;;3.50;1.60;;;;;;;;;;5066436;28;20184;-49
2022/07/07 09:38:25;;;;;;;2.53;1.70;;;;;;;;;;5065361;28;20188;-49
2022/07/07 09:40:52;;;;;;;2.77;1.60;;;;;;;;;;5065709;28;20263;-49
2022/07/07 09:43:19;;;;;;;2.53;1.90;;;;;;;;;;5066142;28;20701;-48
2022/07/07 09:45:49;;;;;;;1.90;1.80;;;;;;;;;;5066314;28;20173;-49
2022/07/07 09:48:15;;;;;;;3.27;1.40;;;;;;;;;;5048181;28;20176;-50
2022/07/07 09:50:41;;;;;;;2.53;1.60;;;;;;;;;;5066814;28;20193;-49
2022/07/07 09:53:08;;;;;;;2.80;1.60;;;;;;;;;;5065573;28;20888;-50
2022/07/07 09:55:34;;;;;;;1.70;1.60;;;;;;;;;;5048037;28;20184;-48
2022/07/07 09:58:00;;;;;;;1.97;1.77;;;;;;;;;;5066782;28;20572;-50
2022/07/07 10:00:27;;;;;;;2.57;1.70;;;;;;;;;;5066053;28;20250;-50
2022/07/07 10:02:57;;;;;;;2.27;1.73;;;;;;;;;;5062004;28;20217;-48
2022/07/07 10:05:23;;;;;;;2.23;1.50;;;;;;;;;;5015369;28;20196;-49
2022/07/07 10:07:50;;;;;;;2.20;1.60;;;;;;;;;;5064944;28;20203;-49
2022/07/07 10:10:19;;;;;;;2.57;1.60;;;;;;;;;;5047762;28;20655;-49
2022/07/07 10:12:49;;;;;;;1.87;1.77;;;;;;;;;;5066629;28;20165;-49
2022/07/07 10:15:15;;;;;;;4.23;1.80;;;;;;;;;;5066151;28;20161;-49
2022/07/07 10:17:42;;;;;;;6.30;1.83;;;;;;;;;;5048069;28;20632;-49
2022/07/07 10:20:09;;;;;;;3.70;2.03;;;;;;;;;;5066117;28;20180;-49
2022/07/07 10:22:35;;;;;;;3.37;1.60;;;;;;;;;;5047137;28;20196;-48
2022/07/07 10:25:03;;;;;;;1.93;1.50;;;;;;;;;;5048364;28;20231;-49
2022/07/07 10:27:30;;;;;;;2.97;1.83;;;;;;;;;;5047949;28;20614;-49
2022/07/07 10:30:00;;;;;;;2.97;1.73;;;;;;;;;;5067362;28;20242;-48
2022/07/07 10:32:38;;;;;;;1.83;1.70;;;;;;;;;;5065846;28;20646;-49
2022/07/07 10:35:08;;;;;;;3.43;1.60;;;;;;;;;;5066509;28;20176;-48
2022/07/07 10:37:45;;;;;;;4.00;1.50;;;;;;;;;;5064352;28;20740;-50
2022/07/07 10:40:19;;;;;;;2.73;1.73;;;;;;;;;;5066244;28;20554;-49
2022/07/07 10:43:00;;;;;;;2.20;1.60;;;;;;;;;;5067231;28;20192;-49
2022/07/07 10:45:28;;;;;;;1.87;1.47;;;;;;;;;;5069925;28;20172;-49
2022/07/07 10:47:54;;;;;;;1.63;1.50;;;;;;;;;;5051676;28;20460;-49
2022/07/07 10:50:31;;;;;;;1.70;1.60;;;;;;;;;;5051177;28;20231;-48
2022/07/07 10:52:58;;;;;;;2.97;1.80;;;;;;;;;;5068286;28;20202;-49
2022/07/07 10:55:51;;;;;;;2.17;1.70;;;;;;;;;;5069329;28;20179;-49
2022/07/07 10:58:43;;;;;;;4.23;2.20;;;;;;;;;;5028761;28;20189;-48
2022/07/07 11:01:13;;;;;;;1.50;1.40;;;;;;;;;;5059040;28;20173;-48
2022/07/07 11:03:39;;;;;;;3.43;1.50;;;;;;;;;;5069727;28;20731;-48
2022/07/07 11:06:05;;;;;;;2.07;1.60;;;;;;;;;;5051391;28;20168;-47
2022/07/07 11:08:39;;;;;;;1.97;1.50;;;;;;;;;;5068414;28;20152;-48
2022/07/07 11:11:06;;;;;;;3.13;1.40;;;;;;;;;;5068761;28;20600;-49
2022/07/07 11:13:42;;;;;;;4.03;1.47;;;;;;;;;;5068825;28;20192;-49
2022/07/07 11:16:10;;;;;;;1.60;1.50;;;;;;;;;;5056850;28;20176;-49
2022/07/07 11:18:37;;;;;;;1.97;1.60;;;;;;;;;;5067712;28;20260;-48
2022/07/07 11:21:04;;;;;;;4.87;2.23;;;;;;;;;;5077770;28;20184;-49
2022/07/07 11:24:06;;;;;;;3.33;1.70;;;;;;;;;;5088522;28;20198;-50
2022/07/07 11:26:34;;;;;;;1.60;1.50;;;;;;;;;;4987048;28;20262;-50
2022/07/07 11:29:07;;;;;;;2.00;1.87;;;;;;;;;;5031682;28;20235;-50
2022/07/07 11:31:33;;;;;;;2.50;1.60;;;;;;;;;;5045282;28;20247;-48
2022/07/07 11:33:59;;;;;;;2.53;1.93;;;;;;;;;;5068923;28;20661;-52
2022/07/07 11:36:28;;;;;;;2.40;2.20;;;;;;;;;;5050538;28;20196;-51
2022/07/07 11:39:03;;;;;;;2.67;1.73;;;;;;;;;;5049854;28;20177;-49
2022/07/07 11:41:38;;;;;;;1.67;1.57;;;;;;;;;;5068694;28;20191;-50
2022/07/07 11:44:04;;;;;;;1.70;1.60;;;;;;;;;;5050807;28;20208;-49
2022/07/07 11:46:30;;;;;;;2.30;1.60;;;;;;;;;;5068832;28;20177;-51
2022/07/07 11:48:57;;;;;;;1.50;1.40;;;;;;;;;;5069028;28;20216;-51
2022/07/07 11:51:30;;;;;;;2.57;2.00;;;;;;;;;;5049752;28;20209;-50
2022/07/07 11:54:00;;;;;;;2.37;2.17;;;;;;;;;;5049148;28;20253;-50
2022/07/07 11:56:33;;;;;;;1.67;1.57;;;;;;;;;;5049582;28;20182;-48
2022/07/07 11:59:02;;;;;;;1.80;1.70;;;;;;;;;;5068553;28;20506;-48
2022/07/07 12:01:36;;;;;;;2.47;1.73;;;;;;;;;;5068222;28;20185;-48
2022/07/07 12:04:15;;;;;;;3.17;1.90;;;;;;;;;;5055096;28;20201;-48
2022/07/07 12:06:42;;;;;;;2.67;1.70;;;;;;;;;;5062140;28;20458;-49
2022/07/07 12:09:09;;;;;;;1.67;1.57;;;;;;;;;;5049143;28;20169;-49
2022/07/07 12:11:38;;;;;;;2.03;1.57;;;;;;;;;;5049953;28;20183;-52
2022/07/07 12:14:07;;;;;;;1.70;1.60;;;;;;;;;;5068362;28;20172;-50
2022/07/07 12:16:49;;;;;;;2.27;1.57;;;;;;;;;;5049930;28;20605;-49
2022/07/07 12:19:16;;;;;;;3.40;2.07;;;;;;;;;;5068704;28;20199;-50
2022/07/07 12:21:44;;;;;;;1.80;1.70;;;;;;;;;;5049268;28;20521;-49
2022/07/07 12:24:13;;;;;;;1.70;1.60;;;;;;;;;;5067838;28;20192;-47
2022/07/07 12:26:44;;;;;;;1.80;1.50;;;;;;;;;;5050393;28;20263;-49
2022/07/07 12:29:10;;;;;;;2.33;2.13;;;;;;;;;;5049876;28;20177;-48
2022/07/07 12:31:37;;;;;;;1.67;1.57;;;;;;;;;;5033770;28;20213;-48
2022/07/07 12:34:13;;;;;;;1.70;1.60;;;;;;;;;;5046118;28;20715;-49
2022/07/07 12:36:41;;;;;;;3.10;1.60;;;;;;;;;;5034978;28;20303;-50
2022/07/07 12:39:07;;;;;;;1.60;1.50;;;;;;;;;;5028727;28;20260;-46
2022/07/07 12:41:35;;;;;;;2.43;1.50;;;;;;;;;;5028996;28;20189;-49
2022/07/07 12:44:15;;;;;;;1.50;1.40;;;;;;;;;;5028970;28;20220;-49
2022/07/07 12:46:42;;;;;;;1.60;1.50;;;;;;;;;;5047086;28;20208;-49
2022/07/07 12:49:08;;;;;;;1.90;1.70;;;;;;;;;;5029237;28;20595;-47
2022/07/07 12:51:35;;;;;;;1.77;1.67;;;;;;;;;;5046976;28;20197;-48
2022/07/07 12:54:01;;;;;;;2.37;1.70;;;;;;;;;;5028535;28;20158;-51
2022/07/07 12:56:46;;;;;;;3.43;1.60;;;;;;;;;;5029425;28;20181;-49
2022/07/07 12:59:21;;;;;;;3.20;2.17;;;;;;;;;;5029587;28;20169;-47
2022/07/07 13:01:54;;;;;;;2.87;1.70;;;;;;;;;;5043392;28;20206;-48
2022/07/07 13:04:21;;;;;;;2.30;2.13;;;;;;;;;;5049268;28;20675;-48
2022/07/07 13:06:49;;;;;;;2.93;1.90;;;;;;;;;;5013284;28;20201;-49
2022/07/07 13:09:16;;;;;;;2.20;2.00;;;;;;;;;;5008975;28;20169;-49
2022/07/07 13:11:42;;;;;;;2.27;1.90;;;;;;;;;;5041527;28;20333;-49
2022/07/07 13:14:08;;;;;;;2.93;1.80;;;;;;;;;;5047056;28;20189;-52
2022/07/07 13:16:35;;;;;;;3.03;1.53;;;;;;;;;;5041570;28;20450;-47
2022/07/07 13:19:01;;;;;;;2.43;1.63;;;;;;;;;;5032610;28;20207;-49
2022/07/07 13:21:28;;;;;;;3.10;2.00;;;;;;;;;;5054007;28;20184;-47
2022/07/07 13:23:54;;;;;;;2.00;1.80;;;;;;;;;;5045809;28;20336;-47
2022/07/07 13:26:21;;;;;;;1.93;1.73;;;;;;;;;;5028538;28;20177;-47
2022/07/07 13:28:47;;;;;;;2.53;2.37;;;;;;;;;;5028149;28;20374;-49
2022/07/07 13:31:16;;;;;;;3.13;2.10;;;;;;;;;;5060832;27;20255;-49
2022/07/07 13:33:43;;;;;;;2.80;1.73;;;;;;;;;;5047987;28;20180;-50
2022/07/07 13:36:10;;;;;;;2.37;1.80;;;;;;;;;;5048039;28;20225;-50
2022/07/07 13:38:36;;;;;;;1.70;1.60;;;;;;;;;;5046300;28;20180;-48
2022/07/07 13:41:03;;;;;;;2.53;2.00;;;;;;;;;;5066464;28;20509;-49
2022/07/07 13:43:30;;;;;;;2.13;1.93;;;;;;;;;;5048070;28;20209;-48
2022/07/07 13:45:56;;;;;;;2.23;1.70;;;;;;;;;;5066464;28;20181;-48
2022/07/07 13:48:24;;;;;;;1.87;1.43;;;;;;;;;;5048196;28;20429;-48
2022/07/07 13:50:55;;;;;;;2.40;2.10;;;;;;;;;;5066047;28;20283;-48
2022/07/07 13:53:21;;;;;;;2.43;1.87;;;;;;;;;;5065000;28;20981;-47
2022/07/07 13:55:48;;;;;;;2.83;1.80;;;;;;;;;;5048586;28;20191;-52
2022/07/07 13:58:14;;;;;;;2.13;1.77;;;;;;;;;;5047907;28;20180;-48
2022/07/07 14:00:42;;;;;;;2.13;1.93;;;;;;;;;;5066174;28;20173;-51
2022/07/07 14:03:09;;;;;;;3.73;3.53;;;;;;;;;;5030735;28;20287;-48
2022/07/07 14:05:35;;;;;;;3.10;2.03;;;;;;;;;;5047693;28;20759;-49
2022/07/07 14:08:02;;;;;;;1.70;1.60;;;;;;;;;;5047354;28;20176;-50
2022/07/07 14:10:28;;;;;;;2.10;1.93;;;;;;;;;;5048456;28;20387;-49
2022/07/07 14:12:54;;;;;;;4.80;1.90;;;;;;;;;;5048083;28;20642;-49
2022/07/07 14:15:21;;;;;;;3.27;2.10;;;;;;;;;;5047850;28;20557;-48
2022/07/07 14:17:48;;;;;;;3.10;2.20;;;;;;;;;;5067547;28;20165;-49
2022/07/07 14:20:14;;;;;;;5.20;3.70;;;;;;;;;;5051741;28;20189;-49
2022/07/07 14:22:40;;;;;;;1.80;1.70;;;;;;;;;;5068932;28;20197;-47
2022/07/07 14:25:07;;;;;;;3.77;2.30;;;;;;;;;;5051466;28;20181;-48
2022/07/07 14:27:34;;;;;;;2.80;2.30;;;;;;;;;;5070300;28;20191;-50
2022/07/07 14:30:00;;;;;;;2.90;1.73;;;;;;;;;;5069661;27;20653;-45
2022/07/07 14:32:28;;;;;;;3.53;2.10;;;;;;;;;;5031829;28;20267;-50
2022/07/07 14:34:54;;;;;;;2.47;2.27;;;;;;;;;;5049736;28;20171;-49
2022/07/07 14:37:23;;;;;;;3.40;2.10;;;;;;;;;;5048033;28;20259;-49
2022/07/07 14:39:50;;;;;;;2.87;2.10;;;;;;;;;;5049713;28;20147;-49
2022/07/07 14:42:17;;;;;;;3.20;1.70;;;;;;;;;;5048633;28;20172;-50
2022/07/07 14:44:46;;;;;;;3.67;2.23;;;;;;;;;;5031744;28;20195;-49
2022/07/07 14:47:12;;;;;;;4.57;2.33;;;;;;;;;;5030936;28;20199;-54
2022/07/07 14:49:40;;;;;;;6.40;2.80;;;;;;;;;;5031103;28;20181;-52
2022/07/07 14:52:09;;;;;;;3.60;2.10;;;;;;;;;;5048374;28;20230;-48